Metar z pełnej godziny Komunikat METAR ze strony awiacja.imgw.pl Metar G00 EPSY METAR EPSY 230800Z 27011G21KT 220V310 CAVOK 06/M01 Q1016=